Time;durP1;ratioP1;P1;durP2;ratioP2;P2;SDS_P1;SDS_P2;PMS_P1;PMS_P2;Temp;Humidity;BMP_temperature;BMP_pressure;BME280_temperature;BME280_humidity;BME280_pressure;Samples;Min_cycle;Max_cycle;Signal;HPM_P1;HPM_P2
2022/01/29 00:01:30;;;;;;;7.00;2.40;;;;;;;-1.10;82.44;101090.77;89729;1273;95141;-75
2022/01/29 00:03:39;;;;;;;7.80;2.50;;;;;;;-1.07;82.51;101088.68;89805;1273;77932;-74
2022/01/29 00:05:51;;;;;;;7.80;2.70;;;;;;;-1.11;82.44;101088.77;89791;1273;83363;-74
2022/01/29 00:08:03;;;;;;;6.20;2.30;;;;;;;-1.12;82.51;101091.64;89776;1273;97949;-74
2022/01/29 00:10:14;;;;;;;8.70;2.30;;;;;;;-1.11;82.51;101086.81;89797;1273;86910;-74
2022/01/29 00:12:24;;;;;;;8.80;2.90;;;;;;;-1.13;82.53;101091.90;89784;1273;94645;-74
2022/01/29 00:14:36;;;;;;;8.40;2.40;;;;;;;-1.15;82.56;101090.61;89791;1273;78829;-75
2022/01/29 00:16:45;;;;;;;7.50;2.20;;;;;;;-1.20;82.57;101096.05;89816;1273;80460;-74
2022/01/29 00:18:54;;;;;;;6.60;2.40;;;;;;;-1.27;82.58;101098.60;89772;1273;98879;-74
2022/01/29 00:21:03;;;;;;;6.80;2.50;;;;;;;-1.31;82.61;101102.75;89783;1273;89129;-65
2022/01/29 00:23:16;;;;;;;6.00;2.20;;;;;;;-1.33;82.81;101108.70;89745;1274;97719;-64
2022/01/29 00:25:25;;;;;;;5.00;2.00;;;;;;;-1.33;82.83;101107.33;89783;1273;79349;-73
2022/01/29 00:27:37;;;;;;;7.80;2.10;;;;;;;-1.32;82.90;101109.17;89782;1273;83611;-74
2022/01/29 00:29:46;;;;;;;7.30;2.50;;;;;;;-1.31;82.88;101113.86;89777;1273;98204;-74
2022/01/29 00:31:58;;;;;;;8.80;2.40;;;;;;;-1.29;83.03;101111.42;89795;1273;89316;-65
2022/01/29 00:34:08;;;;;;;6.30;2.60;;;;;;;-1.27;83.03;101112.56;89737;1273;95332;-65
2022/01/29 00:36:18;;;;;;;7.80;2.60;;;;;;;-1.28;83.06;101113.82;89774;1273;77965;-73
2022/01/29 00:38:29;;;;;;;7.60;3.10;;;;;;;-1.27;83.03;101112.70;89793;1273;83111;-74
2022/01/29 00:40:38;;;;;;;8.40;2.90;;;;;;;-1.30;83.00;101117.34;89792;1273;99130;-67
2022/01/29 00:42:50;;;;;;;10.10;3.80;;;;;;;-1.32;83.02;101113.61;89778;1274;89284;-65
2022/01/29 00:45:02;;;;;;;8.90;2.70;;;;;;;-1.35;83.03;101110.55;89767;1273;93958;-64
2022/01/29 00:47:14;;;;;;;7.70;2.50;;;;;;;-1.37;83.00;101112.33;89782;1273;80067;-74
2022/01/29 00:49:26;;;;;;;5.40;2.50;;;;;;;-1.42;83.04;101109.09;89785;1273;80085;-74
2022/01/29 00:51:35;;;;;;;6.30;2.20;;;;;;;-1.46;83.10;101110.03;89786;1273;99272;-64
2022/01/29 00:53:47;;;;;;;5.90;2.30;;;;;;;-1.47;83.23;101110.99;89792;1273;86788;-64
2022/01/29 00:55:56;;;;;;;7.50;2.60;;;;;;;-1.48;83.20;101105.92;89764;1273;96094;-73
2022/01/29 00:58:07;;;;;;;8.20;3.80;;;;;;;-1.48;83.26;101101.17;89772;1273;82444;-74
2022/01/29 01:00:21;;;;;;;6.40;2.80;;;;;;;-1.43;83.44;101097.86;89784;1273;80724;-74
2022/01/29 01:02:30;;;;;;;6.80;3.40;;;;;;;-1.38;83.45;101100.89;89793;1273;99048;-74
2022/01/29 01:04:39;;;;;;;6.80;3.00;;;;;;;-1.35;83.40;101103.37;89771;1273;89200;-75
2022/01/29 01:06:52;;;;;;;8.30;3.70;;;;;;;-1.35;83.45;101104.09;89745;1273;96033;-65
2022/01/29 01:09:01;;;;;;;9.40;3.80;;;;;;;-1.36;83.41;101104.15;89806;1273;78335;-64
2022/01/29 01:11:10;;;;;;;10.10;4.90;;;;;;;-1.41;83.43;101100.74;89818;1273;82951;-73
2022/01/29 01:13:19;;;;;;;7.80;3.80;;;;;;;-1.47;83.30;101096.55;89820;1273;98534;-74
2022/01/29 01:15:28;;;;;;;9.70;5.20;;;;;;;-1.53;83.47;101095.14;89803;1273;89199;-65
2022/01/29 01:17:37;;;;;;;7.30;3.80;;;;;;;-1.60;83.33;101091.17;89735;1273;94923;-64
2022/01/29 01:19:45;;;;;;;8.10;3.70;;;;;;;-1.65;83.42;101088.49;89789;1272;80861;-64
2022/01/29 01:21:55;;;;;;;8.40;3.90;;;;;;;-1.70;83.56;101081.39;89805;1273;81370;-64
2022/01/29 01:24:04;;;;;;;6.70;3.60;;;;;;;-1.71;83.37;101085.35;89803;1273;97793;-64
2022/01/29 01:26:13;;;;;;;7.90;3.40;;;;;;;-1.74;83.59;101081.29;89804;1272;87707;-74
2022/01/29 01:28:25;;;;;;;6.80;3.20;;;;;;;-1.74;83.53;101076.14;89783;1273;94011;-74
2022/01/29 01:30:35;;;;;;;7.10;3.10;;;;;;;-1.73;83.72;101078.02;89789;1273;80026;-65
2022/01/29 01:32:47;;;;;;;9.20;3.40;;;;;;;-1.71;83.68;101074.90;89805;1273;81525;-64
2022/01/29 01:35:06;;;;;;;8.70;4.20;;;;;;;-1.68;83.94;101069.42;89796;1273;98199;-65
2022/01/29 01:37:30;;;;;;;7.40;3.40;;;;;;;-1.66;83.78;101060.98;89809;1273;88426;-64
2022/01/29 01:39:40;;;;;;;9.30;3.90;;;;;;;-1.68;83.74;101062.37;89754;1273;95833;-65
2022/01/29 01:41:55;;;;;;;8.30;4.50;;;;;;;-1.70;83.94;101058.99;89591;1273;278902;-73
2022/01/29 01:44:06;;;;;;;7.80;4.40;;;;;;;-1.70;83.80;101064.77;89825;1273;82478;-73
2022/01/29 01:46:15;;;;;;;10.00;5.10;;;;;;;-1.71;84.00;101067.50;89756;1273;96594;-64
2022/01/29 01:48:24;;;;;;;10.00;4.90;;;;;;;-1.75;83.90;101067.39;89816;1272;87378;-65
2022/01/29 01:50:37;;;;;;;10.30;5.60;;;;;;;-1.79;83.80;101065.34;89798;1274;93352;-65
2022/01/29 01:52:48;;;;;;;;;;;;;;;-1.84;84.03;101065.61;89829;1274;80198;-65
2022/01/29 01:55:00;;;;;;;9.20;3.80;;;;;;;-1.87;83.88;101061.06;89826;1273;80015;-65
2022/01/29 01:57:12;;;;;;;9.70;3.60;;;;;;;-1.91;84.02;101058.84;89815;1272;98830;-65
2022/01/29 01:59:24;;;;;;;9.90;3.80;;;;;;;-1.94;84.09;101059.52;89806;1274;88937;-65
2022/01/29 02:01:33;;;;;;;8.10;3.40;;;;;;;-1.93;84.21;101058.11;89803;1273;95033;-64
2022/01/29 02:03:42;;;;;;;9.10;3.90;;;;;;;-1.92;84.12;101054.31;89808;1273;80700;-65
2022/01/29 02:05:55;;;;;;;10.80;3.90;;;;;;;-1.92;84.35;101050.08;89816;1273;82803;-72
2022/01/29 02:08:08;;;;;;;8.40;3.40;;;;;;;-1.91;84.28;101050.70;89789;1274;97477;-73
2022/01/29 02:10:21;;;;;;;6.90;3.40;;;;;;;-1.88;84.35;101051.23;89819;1273;88833;-73
2022/01/29 02:12:34;;;;;;;9.30;3.80;;;;;;;-1.86;84.32;101051.64;89805;1274;94733;-65
2022/01/29 02:14:46;;;;;;;9.30;4.40;;;;;;;-1.85;84.47;101045.23;89797;1273;77259;-64
2022/01/29 02:16:59;;;;;;;9.20;4.50;;;;;;;-1.83;84.38;101050.58;89831;1273;82034;-65
2022/01/29 02:19:08;;;;;;;9.10;4.50;;;;;;;-1.85;84.52;101052.79;89800;1274;98652;-65
2022/01/29 02:21:19;;;;;;;9.40;4.70;;;;;;;-1.87;84.40;101053.10;89818;1274;89380;-73
2022/01/29 02:23:31;;;;;;;7.40;4.40;;;;;;;-1.91;84.33;101053.00;89799;1274;95658;-73
2022/01/29 02:25:46;;;;;;;9.00;4.30;;;;;;;-1.95;84.36;101050.96;89804;1272;78954;-65
2022/01/29 02:27:59;;;;;;;11.30;4.90;;;;;;;-2.00;84.33;101053.21;89829;1272;80490;-65
2022/01/29 02:30:11;;;;;;;8.20;3.80;;;;;;;-2.01;84.47;101051.54;89799;1273;99496;-65
2022/01/29 02:32:19;;;;;;;9.20;4.20;;;;;;;-2.04;84.44;101047.80;89830;1273;86355;-74
2022/01/29 02:34:30;;;;;;;9.70;3.80;;;;;;;-2.04;84.45;101042.36;89798;1274;95475;-73
2022/01/29 02:36:39;;;;;;;8.00;3.70;;;;;;;-2.04;84.57;101048.14;89789;1274;81391;-73
2022/01/29 02:38:47;;;;;;;6.50;3.40;;;;;;;-2.04;84.56;101046.08;89806;1273;80360;-73
2022/01/29 02:41:01;;;;;;;6.10;3.60;;;;;;;-2.06;84.64;101054.49;89800;1273;96365;-73
2022/01/29 02:43:19;;;;;;;7.40;3.50;;;;;;;-2.07;84.59;101052.08;89819;1274;89232;-73
2022/01/29 02:45:31;;;;;;;9.40;3.60;;;;;;;-2.08;84.74;101051.80;89813;1274;93207;-72
2022/01/29 02:47:40;;;;;;;7.40;4.00;;;;;;;-2.10;84.96;101056.51;89806;1272;78931;-74
2022/01/29 02:49:51;;;;;;;7.80;3.60;;;;;;;-2.10;84.67;101057.20;89796;1272;81368;-73
2022/01/29 02:52:03;;;;;;;8.40;4.00;;;;;;;-2.11;84.68;101052.50;89806;1272;97717;-65
2022/01/29 02:54:12;;;;;;;9.10;4.90;;;;;;;-2.08;84.79;101053.89;89811;1273;86399;-64
2022/01/29 02:56:21;;;;;;;8.40;4.30;;;;;;;-2.04;85.13;101056.09;89797;1274;93699;-73
2022/01/29 02:58:30;;;;;;;9.70;4.80;;;;;;;-2.06;85.07;101051.61;89805;1272;80328;-74
2022/01/29 03:00:39;;;;;;;10.20;4.80;;;;;;;-2.07;84.86;101055.21;89813;1274;79772;-64
2022/01/29 03:02:48;;;;;;;10.50;5.30;;;;;;;-2.07;84.87;101050.52;89798;1273;97079;-64
2022/01/29 03:05:01;;;;;;;11.10;4.90;;;;;;;-2.11;84.94;101053.55;89800;1272;88964;-64
2022/01/29 03:07:10;;;;;;;12.10;4.50;;;;;;;-2.18;84.74;101054.16;89799;1273;94323;-64
2022/01/29 03:09:22;;;;;;;10.00;4.40;;;;;;;-2.24;84.89;101051.54;89778;1274;80165;-64
2022/01/29 03:11:35;;;;;;;11.60;4.40;;;;;;;-2.30;84.82;101049.42;89795;1274;80839;-64
2022/01/29 03:13:47;;;;;;;10.90;4.80;;;;;;;-2.33;85.08;101054.23;89779;1272;98872;-64
2022/01/29 03:15:56;;;;;;;8.80;4.00;;;;;;;-2.36;85.08;101052.41;89780;1273;89281;-63
2022/01/29 03:18:05;;;;;;;9.30;4.80;;;;;;;-2.34;85.15;101052.33;89731;1274;95745;-63
2022/01/29 03:20:15;;;;;;;9.70;4.50;;;;;;;-2.34;85.07;101056.04;89780;1274;78042;-64
2022/01/29 03:22:27;;;;;;;9.60;4.20;;;;;;;-2.35;85.01;101056.41;89803;1273;79987;-64
2022/01/29 03:24:36;;;;;;;8.60;3.90;;;;;;;-2.33;85.41;101054.70;89792;1274;97516;-73
2022/01/29 03:26:46;;;;;;;9.30;4.80;;;;;;;-2.30;85.40;101050.84;89779;1274;89157;-63
2022/01/29 03:28:55;;;;;;;12.90;4.10;;;;;;;-2.26;85.39;101047.63;89772;1273;93507;-63
2022/01/29 03:31:04;;;;;;;8.70;3.70;;;;;;;-2.21;85.42;101045.16;89784;1273;79298;-73
2022/01/29 03:33:13;;;;;;;7.60;3.40;;;;;;;-2.23;85.33;101036.44;89807;1274;80609;-73
2022/01/29 03:35:26;;;;;;;12.40;4.90;;;;;;;-2.24;85.18;101036.73;89783;1274;99191;-69
2022/01/29 03:37:35;;;;;;;9.00;4.20;;;;;;;-2.24;85.28;101037.24;89814;1273;89840;-63
2022/01/29 03:39:45;;;;;;;12.20;3.80;;;;;;;-2.26;85.23;101038.38;89780;1274;94040;-63
2022/01/29 03:42:00;;;;;;;9.00;4.30;;;;;;;-2.23;85.45;101046.34;89791;1274;78430;-74
2022/01/29 03:44:09;;;;;;;11.50;3.80;;;;;;;-2.23;85.29;101050.58;89798;1273;82952;-74
2022/01/29 03:46:21;;;;;;;8.00;4.00;;;;;;;-2.24;85.15;101052.42;89811;1274;99516;-64
2022/01/29 03:48:33;;;;;;;7.30;3.80;;;;;;;-2.28;85.46;101050.04;89806;1274;87416;-63
2022/01/29 03:50:42;;;;;;;7.30;3.90;;;;;;;-2.33;85.33;101051.20;89778;1273;93948;-74
2022/01/29 03:52:54;;;;;;;10.80;4.70;;;;;;;-2.33;85.27;101055.27;89795;1274;81091;-74
2022/01/29 03:55:06;;;;;;;8.90;4.10;;;;;;;-2.35;85.15;101057.49;89812;1273;82894;-74
2022/01/29 03:57:18;;;;;;;8.30;3.80;;;;;;;-2.37;85.33;101055.66;89801;1274;97400;-74
2022/01/29 03:59:27;;;;;;;8.30;4.00;;;;;;;-2.37;85.40;101054.41;89789;1273;88720;-74
2022/01/29 04:01:39;;;;;;;10.80;3.90;;;;;;;-2.38;85.34;101055.91;89806;1274;95788;-73
2022/01/29 04:03:48;;;;;;;8.50;3.60;;;;;;;-2.35;85.57;101056.11;89790;1272;78919;-74
2022/01/29 04:05:57;;;;;;;6.40;3.30;;;;;;;-2.33;85.40;101055.60;89805;1273;82726;-63
2022/01/29 04:08:15;;;;;;;6.70;3.90;;;;;;;-2.33;85.47;101054.36;89808;1273;97733;-63
2022/01/29 04:10:26;;;;;;;9.50;4.40;;;;;;;-2.34;85.52;101052.70;89823;1273;87569;-70
2022/01/29 04:12:40;;;;;;;12.90;5.20;;;;;;;-2.35;85.41;101054.15;89796;1272;95798;-75
2022/01/29 04:14:50;;;;;;;8.50;4.70;;;;;;;-2.37;85.59;101050.20;89769;1273;77764;-75
2022/01/29 04:16:58;;;;;;;12.50;5.70;;;;;;;-2.40;85.23;101055.13;89773;1273;82928;-75
2022/01/29 04:19:08;;;;;;;11.00;5.30;;;;;;;-2.45;85.21;101052.25;89748;1274;97481;-75
2022/01/29 04:21:20;;;;;;;8.20;4.90;;;;;;;-2.49;85.49;101051.98;89751;1274;87218;-64
2022/01/29 04:23:29;;;;;;;13.50;5.70;;;;;;;-2.54;85.36;101054.17;89728;1274;94262;-63
2022/01/29 04:25:38;;;;;;;9.70;4.50;;;;;;;-2.57;85.53;101048.77;89731;1274;78732;-74
2022/01/29 04:27:50;;;;;;;10.90;5.00;;;;;;;-2.60;85.64;101050.84;89730;1274;80939;-74
2022/01/29 04:30:01;;;;;;;8.70;4.40;;;;;;;-2.60;85.67;101050.02;89734;1274;98529;-74
2022/01/29 04:32:19;;;;;;;6.60;4.10;;;;;;;-2.61;85.71;101049.32;89631;1276;88437;-74
2022/01/29 04:34:31;;;;;;;7.90;4.10;;;;;;;-2.59;85.75;101050.81;89734;1274;96035;-74
2022/01/29 04:36:42;;;;;;;9.30;4.80;;;;;;;-2.51;85.82;101045.91;89742;1274;79436;-63
2022/01/29 04:38:51;;;;;;;11.30;4.70;;;;;;;-2.44;85.95;101038.98;89753;1274;82772;-63
2022/01/29 04:41:03;;;;;;;10.10;4.90;;;;;;;-2.41;86.05;101038.59;89727;1274;98664;-75
2022/01/29 04:43:15;;;;;;;10.20;3.80;;;;;;;-2.35;85.94;101035.26;89732;1274;88995;-74
2022/01/29 04:45:24;;;;;;;7.90;3.90;;;;;;;-2.28;85.94;101037.31;89728;1274;95825;-64
2022/01/29 04:47:36;;;;;;;8.10;3.90;;;;;;;-2.25;86.08;101033.77;89749;1274;80542;-63
2022/01/29 04:49:47;;;;;;;8.00;3.80;;;;;;;-2.18;86.34;101032.64;89728;1274;83479;-64
2022/01/29 04:51:56;;;;;;;10.30;5.30;;;;;;;-2.12;86.18;101030.16;89733;1274;97678;-75
2022/01/29 04:54:05;;;;;;;10.90;4.70;;;;;;;-2.09;86.26;101031.02;89740;1274;89414;-74
2022/01/29 04:56:17;;;;;;;10.20;4.00;;;;;;;-2.09;86.38;101026.61;89742;1274;94683;-63
2022/01/29 04:58:29;;;;;;;8.10;3.70;;;;;;;-2.16;86.00;101028.08;89614;1276;78104;-63
2022/01/29 05:00:39;;;;;;;10.60;4.70;;;;;;;-2.17;86.07;101025.89;89771;1274;80763;-63
2022/01/29 05:02:52;;;;;;;11.70;3.90;;;;;;;-2.18;86.04;101016.04;89740;1274;98886;-63
2022/01/29 05:05:01;;;;;;;8.40;4.30;;;;;;;-2.19;86.17;101012.07;89660;1276;89024;-63
2022/01/29 05:07:13;;;;;;;9.70;4.00;;;;;;;-2.21;86.24;101009.87;89729;1274;93463;-62
2022/01/29 05:09:25;;;;;;;10.90;4.20;;;;;;;-2.24;86.33;101006.89;89734;1274;79527;-62
2022/01/29 05:11:46;;;;;;;7.20;3.60;;;;;;;-2.23;86.23;101010.02;89757;1274;81825;-64
2022/01/29 05:13:58;;;;;;;9.30;3.60;;;;;;;-2.22;86.15;101005.70;89748;1274;98868;-68
2022/01/29 05:16:31;;;;;;;9.80;3.80;;;;;;;-2.18;86.39;101007.77;89744;1274;89033;-74
2022/01/29 05:28:24;;;;;;;10.90;5.30;;;;;;;-2.06;86.61;100988.48;89748;1274;87501;-66
2022/01/29 05:30:33;;;;;;;11.10;4.20;;;;;;;-2.02;86.50;100986.85;89737;1274;92849;-66
2022/01/29 05:32:45;;;;;;;10.10;3.90;;;;;;;-2.03;86.53;100987.05;89753;1274;78831;-66
2022/01/29 05:34:54;;;;;;;13.70;4.50;;;;;;;-2.05;86.56;100989.46;89744;1274;81058;-66
2022/01/29 05:37:07;;;;;;;10.20;4.40;;;;;;;-2.10;86.68;100988.20;89739;1274;97830;-66
2022/01/29 05:39:16;;;;;;;8.30;3.40;;;;;;;-2.12;86.59;100987.79;89733;1274;87415;-66
2022/01/29 05:41:24;;;;;;;10.70;4.20;;;;;;;-2.10;86.84;100989.80;89729;1274;96355;-73
2022/01/29 05:43:36;;;;;;;10.20;3.60;;;;;;;-2.11;86.72;100984.02;89728;1274;81388;-73
2022/01/29 05:45:48;;;;;;;10.60;4.00;;;;;;;-2.12;86.83;100981.98;89738;1274;81484;-65
2022/01/29 05:47:57;;;;;;;8.80;5.00;;;;;;;-2.14;86.60;100983.52;89753;1274;98723;-65
2022/01/29 05:50:07;;;;;;;9.30;4.30;;;;;;;-2.13;86.61;100980.63;89724;1274;89081;-65
2022/01/29 05:52:18;;;;;;;14.40;5.40;;;;;;;-2.11;86.62;100984.20;89726;1274;93514;-65
2022/01/29 05:54:27;;;;;;;14.20;5.30;;;;;;;-2.10;86.81;100983.08;89732;1274;79432;-65
2022/01/29 05:56:36;;;;;;;11.80;5.00;;;;;;;-2.10;86.80;100980.62;89749;1274;81117;-73
2022/01/29 05:58:48;;;;;;;10.00;4.80;;;;;;;-2.04;86.70;100974.22;89729;1274;98187;-73
2022/01/29 06:00:57;;;;;;;13.00;5.50;;;;;;;-2.04;86.79;100977.45;89596;1276;89298;-64
2022/01/29 06:03:11;;;;;;;13.00;5.20;;;;;;;-2.00;86.78;100978.54;89728;1274;94712;-65
2022/01/29 06:05:29;;;;;;;13.70;5.50;;;;;;;-1.96;86.97;100974.60;89730;1274;81321;-64
2022/01/29 06:07:38;;;;;;;13.60;4.90;;;;;;;-1.95;86.90;100975.76;89726;1274;81323;-72
2022/01/29 06:09:48;;;;;;;11.00;4.90;;;;;;;-1.94;86.84;100978.92;89740;1274;98872;-73
2022/01/29 06:12:00;;;;;;;12.90;5.50;;;;;;;-1.96;86.81;100978.70;89741;1274;86668;-64
2022/01/29 06:14:12;;;;;;;12.30;5.20;;;;;;;-1.98;86.76;100973.29;89736;1274;94952;-67
2022/01/29 06:16:21;;;;;;;10.80;5.00;;;;;;;-1.96;86.84;100971.64;89732;1274;77638;-75
2022/01/29 06:18:31;;;;;;;10.40;4.60;;;;;;;-1.96;86.95;100973.52;89663;1276;82936;-73
2022/01/29 06:20:40;;;;;;;10.80;4.60;;;;;;;-1.96;86.92;100974.64;89631;1275;99566;-65
2022/01/29 06:22:49;;;;;;;10.40;4.50;;;;;;;-2.05;86.71;100973.09;89743;1274;88525;-65
2022/01/29 06:24:59;;;;;;;10.60;4.80;;;;;;;-2.10;86.67;100963.89;89708;1274;95984;-65
2022/01/29 06:27:08;;;;;;;14.00;5.00;;;;;;;-2.13;86.83;100963.14;89706;1274;81286;-74
2022/01/29 06:29:20;;;;;;;13.80;4.50;;;;;;;-2.16;86.68;100970.95;89723;1274;83685;-74
2022/01/29 06:31:31;;;;;;;9.00;4.50;;;;;;;-2.19;86.76;100974.48;89737;1273;99101;-65
2022/01/29 06:33:41;;;;;;;11.90;4.90;;;;;;;-2.21;86.85;100971.98;89615;1274;87749;-71
2022/01/29 06:35:49;;;;;;;12.80;4.30;;;;;;;-2.21;87.00;100976.54;89738;1274;95738;-74
2022/01/29 06:37:59;;;;;;;10.00;4.50;;;;;;;-2.19;86.93;100975.93;89709;1274;80306;-73
2022/01/29 06:40:10;;;;;;;10.10;4.60;;;;;;;-2.15;87.11;100979.66;89641;1275;82738;-76
2022/01/29 06:42:20;;;;;;;6.00;3.80;;;;;;;-2.14;87.03;100979.45;89743;1274;97544;-64
2022/01/29 06:44:29;;;;;;;12.00;4.10;;;;;;;-2.12;86.97;100983.19;89599;1276;89371;-64
2022/01/29 06:46:39;;;;;;;14.00;5.30;;;;;;;-2.11;86.90;100977.36;89716;1274;95600;-65
2022/01/29 06:48:47;;;;;;;8.90;4.50;;;;;;;-2.09;87.06;100981.45;89733;1274;81361;-65
2022/01/29 06:50:56;;;;;;;9.70;4.70;;;;;;;-2.05;86.97;100987.17;89710;1274;82311;-65
2022/01/29 06:53:06;;;;;;;12.30;4.80;;;;;;;-1.97;87.17;100988.96;89721;1274;97595;-66
2022/01/29 06:55:17;;;;;;;10.90;5.40;;;;;;;-1.88;87.27;100988.53;89726;1274;87555;-65
2022/01/29 06:57:25;;;;;;;12.80;4.90;;;;;;;-1.85;87.24;100985.02;89700;1274;94784;-65
2022/01/29 06:59:34;;;;;;;11.40;5.20;;;;;;;-1.80;87.21;100978.70;89713;1274;78917;-66
2022/01/29 07:01:43;;;;;;;11.90;6.10;;;;;;;-1.70;87.22;100971.57;89738;1274;82912;-65
2022/01/29 07:03:52;;;;;;;11.30;5.90;;;;;;;-1.63;87.00;100968.28;89735;1274;99130;-66
2022/01/29 07:06:04;;;;;;;13.50;5.80;;;;;;;-1.56;87.17;100962.57;89729;1274;87106;-75
2022/01/29 07:08:12;;;;;;;15.10;6.10;;;;;;;-1.38;87.36;100959.37;89719;1274;94765;-74
2022/01/29 07:10:25;;;;;;;13.40;5.90;;;;;;;-0.58;88.18;100950.93;89722;1274;79041;-69
2022/01/29 07:12:34;;;;;;;14.20;6.70;;;;;;;0.73;88.24;100944.86;89735;1274;82394;-76
2022/01/29 07:14:44;;;;;;;13.80;6.40;;;;;;;1.81;87.82;100938.10;89716;1273;97404;-75
2022/01/29 07:16:53;;;;;;;12.30;6.00;;;;;;;2.95;87.11;100931.13;89737;1274;87902;-64
2022/01/29 07:19:06;;;;;;;12.50;7.00;;;;;;;3.75;86.47;100924.55;89736;1274;92224;-64
2022/01/29 07:21:15;;;;;;;13.40;6.90;;;;;;;4.50;85.44;100914.52;89736;1274;79829;-74
2022/01/29 07:23:28;;;;;;;14.30;7.50;;;;;;;5.35;84.72;100908.54;89734;1272;82062;-74
2022/01/29 07:25:37;;;;;;;17.60;8.70;;;;;;;6.01;83.57;100904.42;89739;1274;99572;-66
2022/01/29 07:27:46;;;;;;;19.50;8.90;;;;;;;6.25;82.42;100902.39;89740;1274;88623;-66
2022/01/29 07:29:55;;;;;;;14.20;7.20;;;;;;;6.36;81.53;100892.90;89711;1274;95618;-63
2022/01/29 07:32:08;;;;;;;14.50;6.90;;;;;;;6.40;80.93;100889.10;89715;1274;79421;-72
2022/01/29 07:34:18;;;;;;;13.80;6.70;;;;;;;6.25;79.84;100886.80;89734;1274;81403;-74
2022/01/29 07:36:27;;;;;;;15.90;6.90;;;;;;;5.91;79.45;100888.14;89721;1274;99275;-63
2022/01/29 07:38:38;;;;;;;13.20;6.30;;;;;;;5.57;79.11;100880.16;89726;1274;89611;-63
2022/01/29 07:40:50;;;;;;;13.00;6.90;;;;;;;5.07;77.24;100878.31;89735;1274;95579;-72
2022/01/29 07:42:59;;;;;;;13.30;6.60;;;;;;;4.56;77.88;100883.63;89645;1276;78416;-73
2022/01/29 07:45:12;;;;;;;17.00;7.50;;;;;;;4.16;77.66;100884.71;89738;1274;81088;-72
2022/01/29 07:47:21;;;;;;;13.20;7.00;;;;;;;3.84;77.86;100886.17;89598;1276;99188;-63
2022/01/29 07:49:33;;;;;;;13.40;6.10;;;;;;;3.73;77.89;100880.81;89708;1272;88432;-64
2022/01/29 07:51:45;;;;;;;13.50;6.20;;;;;;;3.74;77.79;100879.04;89739;1274;96332;-73
2022/01/29 07:53:54;;;;;;;13.00;6.60;;;;;;;4.05;77.78;100873.09;89724;1274;77815;-73
2022/01/29 07:56:06;;;;;;;14.10;7.90;;;;;;;4.58;77.91;100866.63;89717;1274;83331;-63
2022/01/29 07:58:15;;;;;;;11.80;6.00;;;;;;;5.33;77.66;100865.17;89728;1274;99114;-64
2022/01/29 08:00:25;;;;;;;13.00;5.90;;;;;;;5.99;77.92;100861.63;89566;1276;88378;-64
2022/01/29 08:02:37;;;;;;;11.00;6.10;;;;;;;6.69;77.06;100855.44;89696;1274;95502;-64
2022/01/29 08:04:46;;;;;;;11.70;6.30;;;;;;;7.42;76.72;100850.23;89681;1274;79374;-64
2022/01/29 08:06:58;;;;;;;14.60;5.80;;;;;;;8.16;73.80;100845.94;89706;1274;81942;-64
2022/01/29 08:09:08;;;;;;;12.30;6.20;;;;;;;8.89;73.59;100835.48;89714;1274;99612;-64
2022/01/29 08:11:18;;;;;;;10.50;5.70;;;;;;;9.40;72.53;100837.70;89721;1274;88132;-74
2022/01/29 08:13:27;;;;;;;12.00;6.70;;;;;;;9.95;72.42;100831.54;89718;1274;94934;-73
2022/01/29 08:15:39;;;;;;;12.70;7.40;;;;;;;10.54;71.36;100826.34;89708;1274;78714;-74
2022/01/29 08:17:48;;;;;;;11.10;6.10;;;;;;;10.77;69.71;100824.40;89713;1274;83584;-74
2022/01/29 08:20:01;;;;;;;11.80;7.20;;;;;;;10.86;69.65;100825.65;89707;1274;98604;-73
2022/01/29 08:22:10;;;;;;;11.60;6.10;;;;;;;11.16;69.24;100821.30;89707;1274;85937;-67
2022/01/29 08:24:22;;;;;;;12.10;6.50;;;;;;;11.34;68.80;100819.92;89703;1274;93770;-65
2022/01/29 08:26:31;;;;;;;10.80;6.20;;;;;;;11.26;68.45;100818.06;89688;1276;78481;-73
2022/01/29 08:28:41;;;;;;;10.60;6.00;;;;;;;10.96;67.24;100814.64;89734;1274;83411;-74
2022/01/29 08:30:50;;;;;;;11.70;6.30;;;;;;;11.08;67.35;100810.02;89713;1274;98901;-64
2022/01/29 08:33:00;;;;;;;11.30;6.20;;;;;;;11.21;66.42;100808.79;89728;1274;87861;-65
2022/01/29 08:35:10;;;;;;;14.60;6.60;;;;;;;11.36;65.83;100800.60;89719;1274;95423;-66
2022/01/29 08:37:19;;;;;;;13.10;7.00;;;;;;;11.07;65.13;100799.68;89704;1274;79144;-72
2022/01/29 08:39:28;;;;;;;13.90;7.10;;;;;;;10.19;64.87;100796.61;89721;1274;82087;-72
2022/01/29 08:41:36;;;;;;;12.50;6.50;;;;;;;9.12;64.66;100795.21;89721;1274;97188;-66
2022/01/29 08:43:46;;;;;;;12.30;6.00;;;;;;;8.25;64.97;100790.13;89727;1274;88599;-66
2022/01/29 08:45:57;;;;;;;11.90;6.80;;;;;;;7.59;65.09;100797.51;89717;1274;94291;-72
2022/01/29 08:48:07;;;;;;;12.80;6.60;;;;;;;7.03;65.66;100798.94;89705;1274;78175;-72
2022/01/29 08:50:17;;;;;;;14.90;7.80;;;;;;;6.99;66.82;100793.04;89728;1274;83281;-71
2022/01/29 08:52:25;;;;;;;14.90;6.90;;;;;;;7.50;66.21;100779.47;89711;1274;99332;-66
2022/01/29 08:54:37;;;;;;;14.10;7.00;;;;;;;8.11;66.21;100777.13;89718;1273;88032;-65
2022/01/29 08:56:48;;;;;;;15.30;7.50;;;;;;;8.88;65.76;100780.98;89715;1274;94722;-71
2022/01/29 08:59:00;;;;;;;14.20;7.10;;;;;;;9.53;65.08;100781.91;89713;1274;79494;-71
2022/01/29 09:01:09;;;;;;;13.90;7.30;;;;;;;9.93;64.86;100776.77;89604;1276;79576;-70
2022/01/29 09:03:23;;;;;;;13.60;6.90;;;;;;;10.26;64.74;100774.81;89711;1274;99048;-71
2022/01/29 09:05:32;;;;;;;15.10;7.60;;;;;;;10.37;63.05;100778.14;89709;1274;88213;-70
2022/01/29 09:07:41;;;;;;;11.80;6.90;;;;;;;10.47;63.77;100784.65;89712;1274;94320;-71
2022/01/29 09:09:51;;;;;;;15.30;7.40;;;;;;;10.54;63.73;100781.58;89712;1274;80959;-71
2022/01/29 09:12:03;;;;;;;12.60;7.70;;;;;;;10.70;62.60;100780.71;89745;1274;81492;-71
2022/01/29 09:14:11;;;;;;;14.40;7.80;;;;;;;10.65;60.46;100780.54;89707;1274;96166;-71
2022/01/29 09:16:24;;;;;;;15.40;7.70;;;;;;;10.50;61.88;100777.84;89724;1274;88042;-66
2022/01/29 09:18:32;;;;;;;15.30;7.90;;;;;;;10.36;62.85;100783.06;89712;1274;95612;-66
2022/01/29 09:20:42;;;;;;;17.70;8.90;;;;;;;10.37;62.29;100779.05;89736;1274;79450;-70
2022/01/29 09:22:54;;;;;;;14.40;7.40;;;;;;;10.24;61.96;100774.27;89620;1276;82246;-71
2022/01/29 09:25:03;;;;;;;14.90;8.10;;;;;;;10.06;62.34;100771.36;89722;1274;99009;-71
2022/01/29 09:27:12;;;;;;;15.10;6.90;;;;;;;9.79;61.55;100772.52;89714;1274;87746;-71
2022/01/29 09:29:21;;;;;;;15.50;7.60;;;;;;;9.62;61.40;100766.52;89715;1274;95405;-70
2022/01/29 09:31:30;;;;;;;18.60;7.50;;;;;;;9.13;61.24;100766.38;89711;1274;78437;-66
2022/01/29 09:33:39;;;;;;;14.30;7.10;;;;;;;8.55;61.33;100765.15;89722;1274;79872;-65
2022/01/29 09:35:50;;;;;;;17.60;7.80;;;;;;;8.07;61.36;100759.59;89729;1274;97370;-70
2022/01/29 09:37:59;;;;;;;17.30;7.90;;;;;;;8.03;62.47;100760.80;89715;1274;87282;-70
2022/01/29 09:40:13;;;;;;;16.70;7.70;;;;;;;8.52;63.18;100748.42;89718;1274;94052;-70
2022/01/29 09:42:23;;;;;;;17.30;8.40;;;;;;;9.01;62.68;100739.48;89507;1274;268115;-70
2022/01/29 09:44:36;;;;;;;15.00;7.50;;;;;;;9.47;62.53;100729.38;89711;1274;80000;-71
2022/01/29 09:46:51;;;;;;;15.20;8.20;;;;;;;9.76;62.22;100724.09;89711;1274;96468;-73
2022/01/29 09:49:03;;;;;;;17.00;7.30;;;;;;;9.95;62.42;100712.30;89730;1274;89484;-71
2022/01/29 09:51:13;;;;;;;15.50;7.00;;;;;;;10.20;62.35;100709.98;89723;1274;93837;-71
2022/01/29 09:53:25;;;;;;;15.50;7.50;;;;;;;10.43;62.20;100706.53;89711;1274;78853;-72
2022/01/29 09:55:35;;;;;;;16.10;7.50;;;;;;;10.50;62.37;100706.38;89718;1274;82144;-67
2022/01/29 09:57:43;;;;;;;16.60;6.90;;;;;;;10.74;62.18;100702.83;89693;1274;98674;-66
2022/01/29 09:59:53;;;;;;;19.80;8.10;;;;;;;10.92;60.24;100698.34;89750;1273;88563;-66
2022/01/29 10:02:12;;;;;;;15.00;7.80;;;;;;;10.94;60.14;100693.13;89739;1273;95338;-71
2022/01/29 10:04:23;;;;;;;14.60;7.50;;;;;;;11.04;60.10;100687.07;89747;1273;78467;-65
2022/01/29 10:06:37;;;;;;;19.30;7.90;;;;;;;11.11;59.05;100680.00;89775;1273;82291;-66
2022/01/29 10:08:49;;;;;;;20.40;8.20;;;;;;;11.06;59.81;100677.09;89762;1273;96875;-65
2022/01/29 10:11:00;;;;;;;17.60;8.90;;;;;;;11.00;60.14;100669.81;89759;1273;88498;-72
2022/01/29 10:13:32;;;;;;;16.50;8.20;;;;;;;10.67;60.34;100668.55;89748;1273;94924;-72
2022/01/29 10:15:40;;;;;;;21.30;8.90;;;;;;;10.32;60.32;100659.80;89753;1273;80803;-64